Time;durP1;ratioP1;P1;durP2;ratioP2;P2;SDS_P1;SDS_P2;PMS_P1;PMS_P2;Temp;Humidity;BMP_temperature;BMP_pressure;BME280_temperature;BME280_humidity;BME280_pressure;Samples;Min_cycle;Max_cycle;Signal;HPM_P1;HPM_P2
2023/03/06 00:01:54;;;;;;;14.50;12.60;;;;;;;0.74;100.00;100546.34;10213743;28;20061;-73
2023/03/06 00:06:51;;;;;;;16.55;12.95;;;;;;;0.75;100.00;100548.00;10198078;28;20048;-72
2023/03/06 00:11:48;;;;;;;14.27;12.40;;;;;;;0.80;100.00;100542.63;10206459;28;20037;-73
2023/03/06 00:16:44;;;;;;;13.23;11.25;;;;;;;0.77;100.00;100532.41;10202035;28;20525;-73
2023/03/06 00:21:40;;;;;;;12.82;10.57;;;;;;;0.75;100.00;100521.06;10218548;28;20664;-73
2023/03/06 00:26:38;;;;;;;18.20;12.18;;;;;;;0.62;100.00;100523.09;10204276;28;20081;-73
2023/03/06 00:31:34;;;;;;;11.85;10.45;;;;;;;0.68;100.00;100523.16;10203125;28;20046;-73
2023/03/06 00:36:31;;;;;;;11.70;10.20;;;;;;;0.69;100.00;100520.19;10211473;28;20534;-73
2023/03/06 00:41:27;;;;;;;13.73;9.85;;;;;;;0.50;100.00;100511.72;10210412;28;20085;-73
2023/03/06 00:46:24;;;;;;;10.23;9.13;;;;;;;0.65;100.00;100518.28;10211579;28;20132;-73
2023/03/06 00:51:21;;;;;;;9.63;8.52;;;;;;;0.59;100.00;100520.94;10205581;28;20121;-74
2023/03/06 00:56:18;;;;;;;12.90;8.50;;;;;;;0.56;100.00;100510.69;10199986;28;20041;-73
2023/03/06 01:01:15;;;;;;;8.25;7.20;;;;;;;0.50;100.00;100517.09;10211043;28;20046;-73
2023/03/06 01:06:12;;;;;;;9.43;7.80;;;;;;;0.55;100.00;100514.44;10210170;28;20076;-73
2023/03/06 01:11:10;;;;;;;8.50;7.68;;;;;;;0.57;100.00;100514.19;10210650;28;20073;-73
2023/03/06 01:16:11;;;;;;;12.80;7.88;;;;;;;0.44;100.00;100511.91;10205439;28;20046;-73
2023/03/06 01:21:08;;;;;;;8.53;7.47;;;;;;;0.47;100.00;100506.84;10207721;28;20069;-73
2023/03/06 01:26:04;;;;;;;10.98;7.80;;;;;;;0.29;100.00;100496.47;10215846;28;20045;-73
2023/03/06 01:31:01;;;;;;;8.50;7.40;;;;;;;0.46;100.00;100499.03;10221494;28;20049;-72
2023/03/06 01:35:57;;;;;;;8.20;6.93;;;;;;;0.45;100.00;100498.22;10215846;28;20053;-73
2023/03/06 01:40:54;;;;;;;8.07;6.95;;;;;;;0.23;100.00;100494.78;10220580;28;20048;-73
2023/03/06 01:45:50;;;;;;;10.55;7.22;;;;;;;0.13;100.00;100482.84;10221433;28;20410;-73
2023/03/06 01:50:48;;;;;;;13.77;8.02;;;;;;;0.26;100.00;100486.22;10213854;28;20038;-73
2023/03/06 01:55:45;;;;;;;15.73;9.27;;;;;;;0.18;100.00;100495.53;10212116;28;20081;-73
2023/03/06 02:00:41;;;;;;;15.15;9.02;;;;;;;0.15;100.00;100488.00;10221630;28;20423;-72
2023/03/06 02:05:40;;;;;;;13.93;9.60;;;;;;;0.22;100.00;100487.78;11327041;22;20818;-74
2023/03/06 02:10:36;;;;;;;10.70;8.50;;;;;;;0.27;100.00;100477.06;10225919;28;20322;-72
2023/03/06 02:15:33;;;;;;;10.55;8.85;;;;;;;0.26;100.00;100475.47;10225567;28;20696;-72
2023/03/06 02:20:49;;;;;;;13.60;9.60;;;;;;;0.37;100.00;100479.84;10228860;28;20048;-72
2023/03/06 02:25:48;;;;;;;12.05;10.07;;;;;;;0.27;100.00;100482.44;10224347;28;20052;-73
2023/03/06 02:30:47;;;;;;;16.05;11.60;;;;;;;0.27;100.00;100479.75;10220091;28;20049;-72
2023/03/06 02:35:57;;;;;;;16.73;12.65;;;;;;;0.23;100.00;100474.06;10216508;28;21776;-73
2023/03/06 02:40:56;;;;;;;17.88;12.60;;;;;;;0.15;100.00;100467.28;10227539;28;20045;-73
2023/03/06 02:45:53;;;;;;;20.70;13.45;;;;;;;0.33;100.00;100465.31;10217284;28;20049;-73
2023/03/06 02:50:50;;;;;;;20.38;13.57;;;;;;;0.33;100.00;100462.63;10226965;28;20041;-73
2023/03/06 02:55:47;;;;;;;27.17;15.70;;;;;;;0.27;100.00;100458.25;10223470;28;20052;-73
2023/03/06 03:00:43;;;;;;;22.88;14.10;;;;;;;0.33;100.00;100441.09;10223536;28;20561;-72
2023/03/06 03:05:40;;;;;;;20.50;14.70;;;;;;;0.45;100.00;100436.34;10224799;28;20491;-72
2023/03/06 03:10:36;;;;;;;22.52;15.15;;;;;;;0.39;100.00;100434.69;10229218;28;20076;-72
2023/03/06 03:15:33;;;;;;;23.42;15.65;;;;;;;0.31;100.00;100427.09;10227071;28;20075;-72
2023/03/06 03:20:29;;;;;;;21.60;14.05;;;;;;;0.34;100.00;100418.50;10213856;28;20061;-72
2023/03/06 03:25:26;;;;;;;21.73;13.73;;;;;;;0.30;100.00;100420.09;10223670;28;20396;-72
2023/03/06 03:30:22;;;;;;;24.90;15.75;;;;;;;0.31;100.00;100410.97;10223835;28;20100;-72
2023/03/06 03:35:19;;;;;;;21.33;14.40;;;;;;;0.35;100.00;100409.38;10225463;28;20504;-72
2023/03/06 03:40:15;;;;;;;20.27;13.98;;;;;;;0.28;100.00;100406.06;10228159;28;20053;-72
2023/03/06 03:45:12;;;;;;;16.73;13.18;;;;;;;0.30;100.00;100395.88;10225377;28;20163;-72
2023/03/06 03:50:09;;;;;;;15.77;11.88;;;;;;;0.15;100.00;100397.38;10225760;28;20045;-74
2023/03/06 03:55:06;;;;;;;14.48;11.57;;;;;;;0.10;100.00;100393.84;10223918;28;20760;-72
2023/03/06 04:00:02;;;;;;;18.95;13.02;;;;;;;0.13;100.00;100386.06;10222287;28;20159;-71
2023/03/06 04:04:59;;;;;;;17.10;13.20;;;;;;;0.15;100.00;100389.31;10221253;28;20053;-73
2023/03/06 04:09:56;;;;;;;15.68;11.57;;;;;;;0.16;100.00;100382.06;10219773;28;20048;-73
2023/03/06 04:14:52;;;;;;;14.98;11.32;;;;;;;0.05;100.00;100383.03;10212118;28;20049;-73
2023/03/06 04:19:49;;;;;;;17.20;12.00;;;;;;;0.10;100.00;100389.28;10226965;28;20041;-73
2023/03/06 04:24:48;;;;;;;13.57;10.55;;;;;;;0.08;100.00;100369.91;10226137;28;20049;-73
2023/03/06 04:29:44;;;;;;;14.90;10.23;;;;;;;0.03;100.00;100355.63;10221828;28;20048;-73
2023/03/06 04:34:41;;;;;;;12.75;9.80;;;;;;;-0.04;100.00;100361.22;10208837;28;20184;-73
2023/03/06 04:39:37;;;;;;;16.83;11.35;;;;;;;0.04;100.00;100358.03;10208756;28;20044;-73
2023/03/06 04:44:34;;;;;;;16.73;11.30;;;;;;;0.00;100.00;100356.94;10210580;28;20069;-72
2023/03/06 04:49:30;;;;;;;13.32;10.50;;;;;;;-0.10;100.00;100351.47;10217515;28;20046;-72
2023/03/06 04:54:27;;;;;;;12.57;9.80;;;;;;;-0.24;100.00;100351.88;10232886;28;20053;-72
2023/03/06 04:59:23;;;;;;;10.63;9.40;;;;;;;-0.27;100.00;100347.03;10224285;28;20124;-72
2023/03/06 05:04:20;;;;;;;11.07;9.32;;;;;;;-0.36;100.00;100343.19;10228144;28;20076;-74
2023/03/06 05:09:16;;;;;;;9.98;8.60;;;;;;;-0.39;100.00;100340.22;10229684;28;20474;-72
2023/03/06 05:14:13;;;;;;;14.25;9.43;;;;;;;-0.52;100.00;100333.34;10233623;28;20500;-72
2023/03/06 05:19:09;;;;;;;12.32;10.15;;;;;;;-0.52;100.00;100338.72;10215095;28;20048;-76
2023/03/06 05:24:05;;;;;;;10.23;9.23;;;;;;;-0.59;100.00;100330.06;10233003;28;20059;-72
2023/03/06 05:29:02;;;;;;;8.95;8.15;;;;;;;-0.69;100.00;100328.91;10231232;28;20042;-72
2023/03/06 05:33:59;;;;;;;10.07;9.05;;;;;;;-0.70;100.00;100332.63;10223446;28;20053;-72
2023/03/06 05:38:55;;;;;;;11.38;10.18;;;;;;;-0.76;100.00;100330.97;10215944;28;20046;-72
2023/03/06 05:43:52;;;;;;;13.52;10.50;;;;;;;-0.78;100.00;100325.03;10230029;28;20061;-73
2023/03/06 05:48:51;;;;;;;13.55;11.77;;;;;;;-0.83;100.00;100330.34;10228823;28;20072;-73
2023/03/06 05:53:47;;;;;;;14.00;12.30;;;;;;;-0.85;100.00;100329.78;10220440;28;20058;-73
2023/03/06 05:58:45;;;;;;;16.63;13.05;;;;;;;-0.87;100.00;100331.91;10227052;28;20053;-72
2023/03/06 06:03:42;;;;;;;16.42;13.68;;;;;;;-0.90;100.00;100335.09;10231549;28;20050;-73
2023/03/06 06:08:39;;;;;;;19.33;15.55;;;;;;;-0.91;100.00;100333.47;10224655;28;20046;-73
2023/03/06 06:13:37;;;;;;;19.15;14.55;;;;;;;-0.94;100.00;100333.97;10220956;28;20061;-73
2023/03/06 06:18:33;;;;;;;18.40;14.43;;;;;;;-0.96;100.00;100339.59;10233772;28;20495;-73
2023/03/06 06:23:30;;;;;;;20.00;15.15;;;;;;;-0.81;100.00;100335.44;10223208;28;20160;-73
2023/03/06 06:28:28;;;;;;;17.65;15.45;;;;;;;-0.71;100.00;100341.75;10232938;28;20052;-72
2023/03/06 06:33:25;;;;;;;22.25;15.95;;;;;;;-0.64;100.00;100346.94;10228470;28;20059;-73
2023/03/06 06:38:21;;;;;;;18.55;15.43;;;;;;;-0.59;100.00;100338.13;10221665;28;20053;-72
2023/03/06 06:43:18;;;;;;;16.95;14.15;;;;;;;-0.63;100.00;100340.47;10224938;28;20049;-72
2023/03/06 06:48:14;;;;;;;17.00;14.50;;;;;;;-0.53;100.00;100340.59;10223268;28;20492;-72
2023/03/06 06:53:13;;;;;;;17.95;15.30;;;;;;;-0.49;100.00;100340.91;10219481;28;20076;-72
2023/03/06 06:58:09;;;;;;;16.85;14.05;;;;;;;-0.36;100.00;100351.25;10223209;28;20037;-73
2023/03/06 07:03:07;;;;;;;19.75;15.20;;;;;;;-0.12;100.00;100348.22;10231445;28;20495;-72
2023/03/06 07:08:03;;;;;;;17.25;15.27;;;;;;;-0.20;100.00;100348.72;10226676;28;20050;-72
2023/03/06 07:13:00;;;;;;;17.25;15.20;;;;;;;-0.27;100.00;100336.28;10222883;28;20135;-72
2023/03/06 07:17:57;;;;;;;17.65;13.73;;;;;;;-0.28;100.00;100340.03;10227977;28;20077;-72
2023/03/06 07:22:53;;;;;;;16.00;14.25;;;;;;;-0.25;100.00;100339.53;10219034;28;20048;-72
2023/03/06 07:27:53;;;;;;;17.67;15.77;;;;;;;-0.18;100.00;100338.50;10230455;28;20182;-73
2023/03/06 07:32:54;;;;;;;19.55;14.80;;;;;;;0.03;100.00;100345.69;10227804;28;20080;-73
2023/03/06 07:37:51;;;;;;;15.07;13.45;;;;;;;-0.05;100.00;100348.81;10226226;28;20459;-72
2023/03/06 07:42:48;;;;;;;15.57;13.82;;;;;;;0.16;100.00;100347.94;10227778;28;20053;-72
2023/03/06 07:47:44;;;;;;;16.58;14.88;;;;;;;0.38;100.00;100352.38;10221685;28;20048;-72
2023/03/06 07:52:41;;;;;;;15.98;14.18;;;;;;;0.28;100.00;100346.91;10229310;28;20057;-72
2023/03/06 07:57:37;;;;;;;17.55;14.82;;;;;;;0.60;100.00;100352.22;10226901;28;20048;-72
2023/03/06 08:02:34;;;;;;;21.15;16.25;;;;;;;0.41;100.00;100352.66;10230073;28;20099;-74
2023/03/06 08:07:30;;;;;;;22.08;17.70;;;;;;;0.80;100.00;100343.47;10215361;28;20614;-72
2023/03/06 08:12:27;;;;;;;26.05;17.02;;;;;;;0.79;100.00;100347.22;10229845;28;20045;-72
2023/03/06 08:17:23;;;;;;;21.23;15.45;;;;;;;0.91;100.00;100355.91;10222532;28;20060;-72
2023/03/06 08:22:20;;;;;;;21.90;16.40;;;;;;;0.95;100.00;100357.00;10234489;28;20110;-72
2023/03/06 08:27:16;;;;;;;21.23;15.07;;;;;;;1.11;100.00;100355.16;10233461;28;20046;-72
2023/03/06 08:32:13;;;;;;;19.60;14.43;;;;;;;0.97;100.00;100365.63;10230329;28;20051;-72
2023/03/06 08:37:09;;;;;;;20.13;14.18;;;;;;;0.84;100.00;100366.09;10225408;28;20049;-72
2023/03/06 08:42:06;;;;;;;23.27;14.48;;;;;;;0.96;100.00;100374.78;10235025;28;20081;-72
2023/03/06 08:47:03;;;;;;;20.83;14.45;;;;;;;1.12;100.00;100366.78;10230510;28;20123;-71
2023/03/06 08:51:59;;;;;;;22.55;15.30;;;;;;;1.11;100.00;100365.13;10235345;28;20076;-72
2023/03/06 08:56:56;;;;;;;18.52;12.52;;;;;;;1.01;100.00;100366.72;10227520;28;20404;-72
2023/03/06 09:01:52;;;;;;;20.98;14.60;;;;;;;1.17;100.00;100372.16;10227259;28;20050;-71
2023/03/06 09:06:49;;;;;;;22.85;14.57;;;;;;;1.27;100.00;100374.91;10232696;28;20080;-71
2023/03/06 09:11:45;;;;;;;17.50;12.98;;;;;;;1.11;100.00;100371.31;10224708;28;20076;-72
2023/03/06 09:16:42;;;;;;;15.60;12.13;;;;;;;1.21;100.00;100375.97;10232795;28;20045;-71
2023/03/06 09:21:40;;;;;;;16.70;13.15;;;;;;;1.68;100.00;100373.13;10226000;28;20053;-72
2023/03/06 09:26:38;;;;;;;14.23;10.52;;;;;;;1.34;100.00;100370.06;10231034;28;20136;-72
2023/03/06 09:31:42;;;;;;;10.90;9.32;;;;;;;1.59;100.00;100376.59;10233099;28;20042;-72
2023/03/06 09:36:40;;;;;;;10.25;8.80;;;;;;;1.82;100.00;100365.31;10232543;28;20052;-72
2023/03/06 09:41:53;;;;;;;10.90;8.90;;;;;;;1.82;100.00;100370.72;10230711;28;20049;-72
2023/03/06 09:47:05;;;;;;;14.88;8.75;;;;;;;1.24;100.00;100370.03;10226825;28;20115;-72
2023/03/06 09:52:17;;;;;;;11.60;9.25;;;;;;;1.84;100.00;100373.16;10231807;28;20045;-72
2023/03/06 09:57:22;;;;;;;12.65;9.35;;;;;;;2.50;100.00;100361.53;10223952;28;20081;-72
2023/03/06 10:02:37;;;;;;;13.95;11.32;;;;;;;2.07;100.00;100366.44;10228925;28;20164;-72
2023/03/06 10:07:57;;;;;;;12.88;9.65;;;;;;;2.24;100.00;100360.75;10226067;28;20104;-72
2023/03/06 10:12:59;;;;;;;12.40;9.90;;;;;;;2.34;100.00;100343.75;10224255;28;20037;-72
2023/03/06 10:17:56;;;;;;;;;;;;;;;2.96;100.00;100345.19;10232969;28;20077;-72
2023/03/06 10:23:23;;;;;;;13.35;10.98;;;;;;;2.29;100.00;100341.84;10228414;28;20389;-71
2023/03/06 10:28:27;;;;;;;13.27;10.32;;;;;;;2.35;100.00;100343.47;10231754;28;20103;-72
2023/03/06 10:33:52;;;;;;;13.93;10.80;;;;;;;2.19;100.00;100341.88;10227686;28;20079;-72
2023/03/06 10:38:49;;;;;;;14.55;11.75;;;;;;;2.29;100.00;100337.25;10223207;28;20033;-72
2023/03/06 10:44:04;;;;;;;12.70;11.07;;;;;;;2.28;100.00;100330.25;10225716;28;20041;-71
2023/03/06 10:49:03;;;;;;;12.32;9.75;;;;;;;2.54;100.00;100316.72;10225338;28;20573;-73
2023/03/06 10:54:15;;;;;;;14.25;10.98;;;;;;;3.01;100.00;100320.88;10228084;28;20060;-72
2023/03/06 10:59:27;;;;;;;14.70;10.25;;;;;;;2.62;100.00;100312.63;10228155;28;20041;-72
2023/03/06 11:04:33;;;;;;;12.15;10.18;;;;;;;2.55;100.00;100312.94;10224595;28;20172;-72
2023/03/06 11:09:32;;;;;;;13.27;10.70;;;;;;;2.55;100.00;100312.94;10227755;28;20048;-72
2023/03/06 11:14:28;;;;;;;11.68;10.43;;;;;;;2.40;100.00;100312.97;10218805;28;20056;-72
2023/03/06 11:19:27;;;;;;;11.30;9.90;;;;;;;2.39;100.00;100314.03;10230679;28;20037;-72
2023/03/06 11:24:25;;;;;;;10.95;9.88;;;;;;;3.06;100.00;100299.22;10222905;28;20042;-72
2023/03/06 11:29:28;;;;;;;15.02;10.18;;;;;;;3.35;100.00;100293.16;10226836;28;20045;-72
2023/03/06 11:34:46;;;;;;;9.70;8.63;;;;;;;4.09;100.00;100290.44;10231319;28;20049;-73
2023/03/06 11:40:05;;;;;;;11.82;8.38;;;;;;;4.15;100.00;100273.03;10224576;28;20063;-73
2023/03/06 11:45:23;;;;;;;9.30;8.35;;;;;;;4.12;100.00;100262.78;10223830;28;20549;-73
2023/03/06 11:50:55;;;;;;;9.32;7.50;;;;;;;4.63;100.00;100268.44;10218472;28;20076;-73
2023/03/06 11:56:10;;;;;;;7.80;7.10;;;;;;;4.54;100.00;100263.97;10199002;28;20129;-73
2023/03/06 12:01:51;;;;;;;11.57;7.07;;;;;;;4.71;100.00;100252.66;10222418;28;20076;-74
2023/03/06 12:06:59;;;;;;;7.97;6.93;;;;;;;4.42;100.00;100256.25;10216547;28;20049;-74
2023/03/06 12:12:14;;;;;;;8.13;6.85;;;;;;;5.05;100.00;100247.06;10217313;28;20049;-74
2023/03/06 12:17:16;;;;;;;7.70;7.00;;;;;;;5.24;100.00;100250.59;10223916;28;20049;-73
2023/03/06 12:22:37;;;;;;;7.05;6.47;;;;;;;4.96;100.00;100243.41;10211380;28;20077;-73
2023/03/06 12:27:52;;;;;;;7.28;6.70;;;;;;;5.57;100.00;100242.50;10226622;28;20511;-73
2023/03/06 12:33:08;;;;;;;6.63;6.15;;;;;;;4.88;100.00;100231.31;10226599;28;20103;-74
2023/03/06 12:38:27;;;;;;;8.00;7.30;;;;;;;4.68;100.00;100226.97;10228612;28;20471;-73
2023/03/06 12:44:11;;;;;;;7.30;6.60;;;;;;;4.85;100.00;100223.78;10217480;28;20042;-73
2023/03/06 12:49:13;;;;;;;6.80;6.30;;;;;;;5.24;100.00;100215.38;10221968;28;20052;-74
2023/03/06 12:54:29;;;;;;;8.65;6.22;;;;;;;5.36;100.00;100233.91;10218393;28;20045;-73
2023/03/06 12:59:47;;;;;;;7.43;6.72;;;;;;;5.68;100.00;100205.97;10223491;28;20539;-73
2023/03/06 13:04:59;;;;;;;7.78;6.70;;;;;;;5.46;100.00;100216.66;10225041;28;20511;-73
2023/03/06 13:10:20;;;;;;;6.78;6.30;;;;;;;6.08;100.00;100203.69;10229196;28;20476;-74
2023/03/06 13:15:25;;;;;;;10.25;5.90;;;;;;;5.64;100.00;100199.53;10226119;28;20072;-73
2023/03/06 13:20:42;;;;;;;6.95;5.70;;;;;;;5.23;100.00;100208.31;10236777;28;20564;-73
2023/03/06 13:25:47;;;;;;;6.32;5.78;;;;;;;4.98;100.00;100208.69;10224333;28;20057;-73
2023/03/06 13:30:44;;;;;;;6.90;6.13;;;;;;;4.52;100.00;100203.88;10228684;28;20118;-74
2023/03/06 13:35:41;;;;;;;8.88;6.03;;;;;;;4.45;100.00;100206.13;10225436;28;20095;-73
2023/03/06 13:40:37;;;;;;;6.63;5.85;;;;;;;4.61;100.00;100202.16;10226815;28;20060;-73
2023/03/06 13:45:43;;;;;;;6.90;6.20;;;;;;;4.50;100.00;100201.47;10224313;28;20125;-73
2023/03/06 13:50:42;;;;;;;8.57;6.30;;;;;;;4.40;100.00;100199.69;10220255;28;20052;-73
2023/03/06 13:55:54;;;;;;;7.22;5.78;;;;;;;4.11;100.00;100207.06;10223253;28;20076;-73
2023/03/06 14:01:04;;;;;;;6.53;6.00;;;;;;;4.30;100.00;100194.41;10232905;28;20147;-73
2023/03/06 14:06:21;;;;;;;8.27;6.13;;;;;;;5.25;100.00;100200.72;10228078;28;20056;-73
2023/03/06 14:11:20;;;;;;;9.18;6.15;;;;;;;5.62;100.00;100201.75;10233991;28;20073;-73
2023/03/06 14:16:20;;;;;;;8.10;6.50;;;;;;;5.69;100.00;100188.59;10220739;28;20069;-73
2023/03/06 14:21:38;;;;;;;6.55;5.95;;;;;;;5.68;100.00;100178.84;10225602;28;20065;-73
2023/03/06 14:26:42;;;;;;;7.30;6.05;;;;;;;5.67;100.00;100171.03;10229009;28;20077;-74
2023/03/06 14:31:42;;;;;;;7.53;6.00;;;;;;;4.98;100.00;100170.75;10226459;28;20128;-74
2023/03/06 14:36:43;;;;;;;6.53;5.93;;;;;;;4.62;100.00;100174.00;10228960;28;20589;-73
2023/03/06 14:41:39;;;;;;;10.20;6.10;;;;;;;4.53;100.00;100167.59;10233999;28;20415;-74
2023/03/06 14:46:36;;;;;;;8.32;6.20;;;;;;;4.45;100.00;100162.81;10223516;28;20085;-73
2023/03/06 14:51:41;;;;;;;7.22;5.80;;;;;;;4.35;100.00;100164.56;10230562;28;20551;-72
2023/03/06 14:56:44;;;;;;;6.35;5.72;;;;;;;4.23;100.00;100150.66;10221814;28;20431;-71
2023/03/06 15:01:45;;;;;;;8.23;7.18;;;;;;;4.42;100.00;100148.78;10226884;28;20046;-72
2023/03/06 15:06:43;;;;;;;7.90;5.93;;;;;;;4.22;100.00;100149.03;10231814;28;20049;-73
2023/03/06 15:11:56;;;;;;;7.97;5.93;;;;;;;4.04;100.00;100153.31;10231407;28;20056;-73
2023/03/06 15:16:52;;;;;;;7.93;5.70;;;;;;;4.03;100.00;100146.28;10220317;28;20136;-73
2023/03/06 15:21:50;;;;;;;8.00;6.05;;;;;;;4.04;100.00;100142.50;10227128;28;20072;-74
2023/03/06 15:26:54;;;;;;;7.22;5.53;;;;;;;4.15;100.00;100151.28;10223957;28;20128;-73
2023/03/06 15:31:50;;;;;;;6.30;5.70;;;;;;;4.40;100.00;100133.91;10219330;28;20041;-73
2023/03/06 15:36:53;;;;;;;6.88;5.40;;;;;;;4.49;100.00;100142.22;10220431;28;20120;-74
2023/03/06 15:41:55;;;;;;;7.13;5.60;;;;;;;4.41;100.00;100130.94;10217808;28;20063;-73
2023/03/06 15:46:55;;;;;;;6.05;5.15;;;;;;;4.22;100.00;100132.78;10225188;28;20125;-74
2023/03/06 15:52:07;;;;;;;5.68;5.10;;;;;;;4.28;100.00;100115.41;10228444;28;20049;-73
2023/03/06 15:57:06;;;;;;;6.90;5.25;;;;;;;4.09;100.00;100123.47;10223486;28;20049;-73
2023/03/06 16:02:12;;;;;;;11.63;6.75;;;;;;;4.10;100.00;100110.75;10226072;28;20047;-73
2023/03/06 16:07:10;;;;;;;5.43;4.90;;;;;;;4.30;100.00;100115.91;10225138;28;20507;-73
2023/03/06 16:12:13;;;;;;;7.30;5.18;;;;;;;4.46;100.00;100116.53;10215152;28;20050;-73
2023/03/06 16:17:11;;;;;;;9.10;5.53;;;;;;;4.10;100.00;100113.47;10226736;28;20056;-74
2023/03/06 16:22:08;;;;;;;6.57;5.05;;;;;;;4.10;100.00;100113.47;10229650;28;20057;-74
2023/03/06 16:27:05;;;;;;;6.57;5.07;;;;;;;3.72;100.00;100107.94;10230675;28;20103;-73
2023/03/06 16:32:03;;;;;;;7.25;5.40;;;;;;;3.66;100.00;100109.09;10219828;28;20060;-73
2023/03/06 16:37:00;;;;;;;9.68;5.80;;;;;;;3.53;100.00;100105.97;10219971;28;20069;-74
2023/03/06 16:41:56;;;;;;;7.85;5.20;;;;;;;3.40;100.00;100106.63;10224638;28;20527;-73
2023/03/06 16:46:53;;;;;;;8.80;5.53;;;;;;;3.50;100.00;100100.31;10222498;28;20042;-73
2023/03/06 16:51:50;;;;;;;18.50;6.80;;;;;;;3.51;100.00;100096.53;10228662;28;20053;-73
2023/03/06 16:56:46;;;;;;;6.15;5.00;;;;;;;3.57;100.00;100090.81;10236723;28;20136;-73
2023/03/06 17:01:42;;;;;;;5.90;5.40;;;;;;;3.52;100.00;100098.94;10236898;28;20650;-73
2023/03/06 17:06:40;;;;;;;5.95;5.32;;;;;;;3.32;100.00;100093.75;10231374;28;20046;-72
2023/03/06 17:11:42;;;;;;;10.73;6.53;;;;;;;3.17;100.00;100095.47;10228867;28;20053;-73
2023/03/06 17:16:39;;;;;;;6.55;5.38;;;;;;;3.20;100.00;100090.59;10229467;28;20121;-73
2023/03/06 17:21:37;;;;;;;6.60;5.32;;;;;;;3.13;100.00;100097.16;10224686;28;20753;-72
2023/03/06 17:26:35;;;;;;;9.82;5.72;;;;;;;3.08;100.00;100089.06;10232586;28;20049;-72
2023/03/06 17:31:31;;;;;;;6.10;5.60;;;;;;;3.05;100.00;100089.66;10229707;28;20125;-73
2023/03/06 17:36:29;;;;;;;5.90;5.40;;;;;;;3.05;100.00;100088.84;10229532;28;20057;-73
2023/03/06 17:41:26;;;;;;;6.30;5.70;;;;;;;3.02;100.00;100090.22;10227671;28;20558;-73
2023/03/06 17:46:23;;;;;;;6.65;5.65;;;;;;;3.01;100.00;100085.91;10239777;28;20048;-73
2023/03/06 17:51:20;;;;;;;7.43;6.43;;;;;;;3.00;100.00;100081.59;10222942;28;20072;-72
2023/03/06 17:56:16;;;;;;;7.22;5.80;;;;;;;3.00;100.00;100080.78;10224744;28;20064;-72
2023/03/06 18:01:16;;;;;;;8.80;5.57;;;;;;;3.01;100.00;100083.19;10232754;28;20072;-72
2023/03/06 18:06:14;;;;;;;12.00;6.50;;;;;;;2.97;100.00;100076.78;10228423;28;20084;-71
2023/03/06 18:11:12;;;;;;;10.77;6.22;;;;;;;2.95;100.00;100073.53;10228220;28;20137;-71
2023/03/06 18:16:11;;;;;;;7.25;6.55;;;;;;;2.92;100.00;100069.50;10218685;28;20050;-71
2023/03/06 18:21:10;;;;;;;9.57;6.10;;;;;;;2.91;100.00;100061.69;10223655;28;20517;-72
2023/03/06 18:26:21;;;;;;;10.85;6.72;;;;;;;2.88;100.00;100052.25;10227601;28;20059;-72
2023/03/06 18:31:23;;;;;;;8.00;6.35;;;;;;;2.78;100.00;100051.53;10230328;28;20579;-72
2023/03/06 18:36:22;;;;;;;7.47;6.75;;;;;;;2.76;100.00;100042.91;10226330;28;20053;-72
2023/03/06 18:41:20;;;;;;;7.80;7.00;;;;;;;2.68;100.00;100031.63;10225755;28;20725;-72
2023/03/06 18:46:16;;;;;;;8.75;6.63;;;;;;;2.63;100.00;100020.88;10225750;28;20072;-72
2023/03/06 18:51:13;;;;;;;6.75;6.00;;;;;;;2.59;100.00;100013.63;10228123;28;20052;-72
2023/03/06 18:56:15;;;;;;;7.43;6.22;;;;;;;2.56;100.00;100008.78;10225222;28;20065;-72
2023/03/06 19:01:12;;;;;;;8.80;5.75;;;;;;;2.53;100.00;99996.66;10234027;28;20135;-72
2023/03/06 19:06:11;;;;;;;7.28;6.57;;;;;;;2.45;100.00;99999.94;10214563;28;20664;-72
2023/03/06 19:11:10;;;;;;;6.60;5.82;;;;;;;2.44;100.00;99990.25;10226462;28;20052;-73
2023/03/06 19:16:07;;;;;;;8.90;6.40;;;;;;;2.45;100.00;99998.06;10227501;28;20133;-73
2023/03/06 19:21:17;;;;;;;8.70;6.43;;;;;;;2.41;100.00;99988.09;10220483;28;20046;-73
2023/03/06 19:26:14;;;;;;;6.97;6.10;;;;;;;2.41;100.00;99982.72;10226503;28;20045;-73
2023/03/06 19:31:17;;;;;;;10.30;7.47;;;;;;;2.32;100.00;99979.78;10222487;28;20519;-73
2023/03/06 19:36:16;;;;;;;9.68;7.30;;;;;;;2.32;100.00;99971.69;10227047;28;20424;-73
2023/03/06 19:41:12;;;;;;;9.82;6.28;;;;;;;2.24;100.00;99972.31;10227336;28;20076;-73
2023/03/06 19:46:11;;;;;;;9.70;6.50;;;;;;;2.12;100.00;99959.19;10212904;28;20053;-73
2023/03/06 19:51:08;;;;;;;7.55;6.20;;;;;;;2.12;100.00;99948.41;10216053;28;20527;-73
2023/03/06 19:56:08;;;;;;;8.52;6.55;;;;;;;2.05;100.00;99932.53;10216346;28;20127;-73
2023/03/06 20:01:10;;;;;;;8.07;5.95;;;;;;;2.03;100.00;99933.91;10223635;28;20069;-73
2023/03/06 20:06:12;;;;;;;9.10;7.75;;;;;;;2.02;100.00;99916.91;10224507;28;20462;-73
2023/03/06 20:11:24;;;;;;;8.45;6.40;;;;;;;2.03;100.00;99909.63;10220185;28;20053;-73
2023/03/06 20:16:21;;;;;;;10.07;7.53;;;;;;;1.93;100.00;99897.03;10220754;28;20046;-72
2023/03/06 20:21:18;;;;;;;12.15;6.60;;;;;;;1.85;100.00;99895.72;10222738;28;20046;-73
2023/03/06 20:26:14;;;;;;;9.93;6.57;;;;;;;1.76;100.00;99886.59;10226276;28;20484;-72
2023/03/06 20:31:19;;;;;;;10.25;6.53;;;;;;;1.69;100.00;99880.72;10222154;28;20136;-72
2023/03/06 20:36:19;;;;;;;9.38;6.88;;;;;;;1.56;100.00;99875.97;10222598;28;20107;-72
2023/03/06 20:41:26;;;;;;;8.75;6.20;;;;;;;1.47;100.00;99856.88;10211442;28;20658;-72
2023/03/06 20:46:23;;;;;;;10.70;6.53;;;;;;;1.29;100.00;99850.25;10211653;28;20046;-73
2023/03/06 20:51:26;;;;;;;8.32;6.10;;;;;;;1.24;100.00;99843.00;10209927;28;20072;-72
2023/03/06 20:56:26;;;;;;;10.10;6.55;;;;;;;1.16;100.00;99829.28;10206145;28;20132;-72
2023/03/06 21:01:27;;;;;;;12.07;6.88;;;;;;;1.14;100.00;99816.13;10213909;28;20088;-73
2023/03/06 21:06:27;;;;;;;9.73;7.07;;;;;;;1.13;100.00;99814.50;10215497;28;20052;-73
2023/03/06 21:11:24;;;;;;;9.57;7.28;;;;;;;1.17;100.00;99798.59;10217091;28;20456;-72
2023/03/06 21:16:23;;;;;;;9.45;7.38;;;;;;;1.23;100.00;99797.47;10207526;28;20052;-73
2023/03/06 21:21:23;;;;;;;8.43;6.90;;;;;;;1.26;100.00;99794.25;10220220;28;20061;-72
2023/03/06 21:26:22;;;;;;;11.90;7.72;;;;;;;1.34;100.00;99782.88;10224198;28;20046;-72
2023/03/06 21:31:20;;;;;;;7.72;6.43;;;;;;;1.24;100.00;99766.78;10223975;28;20081;-72
2023/03/06 21:36:20;;;;;;;9.00;6.93;;;;;;;1.22;100.00;99763.56;10225655;28;20120;-72
2023/03/06 21:41:26;;;;;;;8.15;7.30;;;;;;;1.24;100.00;99756.03;10227898;28;20080;-73
2023/03/06 21:46:22;;;;;;;11.30;6.95;;;;;;;1.29;100.00;99742.50;10223623;28;20072;-73
2023/03/06 21:51:22;;;;;;;10.07;7.50;;;;;;;1.23;100.00;99727.47;10224249;28;20507;-73
2023/03/06 21:56:21;;;;;;;9.48;7.70;;;;;;;1.28;100.00;99719.38;10233307;28;20123;-73
2023/03/06 22:01:21;;;;;;;8.95;7.03;;;;;;;1.27;100.00;99701.59;10231768;28;20144;-73
2023/03/06 22:06:24;;;;;;;8.63;7.15;;;;;;;1.29;100.00;99707.50;10230392;28;20072;-73
2023/03/06 22:11:23;;;;;;;12.02;7.85;;;;;;;1.33;100.00;99695.09;10228319;28;20045;-73
2023/03/06 22:16:19;;;;;;;11.48;7.90;;;;;;;1.26;100.00;99678.44;10228384;28;20077;-73
2023/03/06 22:21:19;;;;;;;7.93;7.07;;;;;;;1.25;100.00;99669.56;10229920;28;20052;-73
2023/03/06 22:26:16;;;;;;;7.40;6.70;;;;;;;1.34;100.00;99658.19;10226247;28;20444;-72
2023/03/06 22:31:19;;;;;;;8.00;6.57;;;;;;;1.35;100.00;99647.13;10224748;28;20055;-72
2023/03/06 22:36:15;;;;;;;9.63;7.03;;;;;;;1.33;100.00;99624.28;10219388;28;20076;-72
2023/03/06 22:41:14;;;;;;;8.63;7.05;;;;;;;1.46;100.00;99623.59;10221434;28;20073;-73
2023/03/06 22:46:13;;;;;;;7.63;6.85;;;;;;;1.56;100.00;99609.25;10214361;28;20839;-73